createdAt,value
2022-11-22T00:00:22.795Z,2.17
2022-11-22T00:02:49.504Z,1.97
2022-11-22T00:05:16.361Z,2.00
2022-11-22T00:07:43.226Z,1.97
2022-11-22T00:10:11.783Z,1.90
2022-11-22T00:12:40.111Z,1.93
2022-11-22T00:15:07.854Z,1.80
2022-11-22T00:17:34.969Z,1.90
2022-11-22T00:20:02.087Z,1.97
2022-11-22T00:22:29.796Z,1.80
2022-11-22T00:24:56.515Z,1.80
2022-11-22T00:27:23.332Z,1.90
2022-11-22T00:29:50.103Z,1.70
2022-11-22T00:32:17.045Z,1.80
2022-11-22T00:34:43.680Z,1.90
2022-11-22T00:37:10.445Z,1.83
2022-11-22T00:39:37.317Z,1.70
2022-11-22T00:42:04.151Z,1.63
2022-11-22T00:44:30.894Z,1.60
2022-11-22T00:46:57.764Z,1.80
2022-11-22T00:49:24.493Z,1.40
2022-11-22T00:51:51.290Z,1.40
2022-11-22T00:54:17.968Z,1.73
2022-11-22T00:56:44.685Z,1.60
2022-11-22T00:59:11.465Z,1.70
2022-11-22T01:01:38.199Z,1.50
2022-11-22T01:04:05.050Z,1.57
2022-11-22T01:06:31.878Z,1.80
2022-11-22T01:08:58.696Z,1.60
2022-11-22T01:11:25.327Z,1.67
2022-11-22T01:13:51.989Z,1.50
2022-11-22T01:16:18.974Z,1.60
2022-11-22T01:18:45.753Z,1.40
2022-11-22T01:21:14.904Z,1.40
2022-11-22T01:23:41.620Z,1.50
2022-11-22T01:26:08.988Z,1.40
2022-11-22T01:28:36.631Z,1.50
2022-11-22T01:31:03.483Z,1.50
2022-11-22T01:33:30.201Z,1.50
2022-11-22T01:35:59.873Z,1.50
2022-11-22T01:38:26.535Z,1.47
2022-11-22T01:40:53.812Z,1.10
2022-11-22T01:43:25.400Z,1.30
2022-11-22T01:45:56.832Z,1.03
2022-11-22T01:48:29.559Z,1.30
2022-11-22T01:51:17.130Z,1.30
2022-11-22T01:53:44.011Z,1.30
2022-11-22T01:56:14.713Z,1.30
2022-11-22T01:58:43.785Z,1.33
2022-11-22T02:01:10.812Z,1.40
2022-11-22T02:03:39.614Z,1.17
2022-11-22T02:06:07.065Z,1.37
2022-11-22T02:09:07.299Z,1.30
2022-11-22T02:11:36.363Z,1.17
2022-11-22T02:14:03.898Z,1.10
2022-11-22T02:16:30.935Z,1.10
2022-11-22T02:18:57.605Z,1.30
2022-11-22T02:21:24.315Z,1.20
2022-11-22T02:24:08.343Z,1.23
2022-11-22T02:26:35.046Z,1.40
2022-11-22T02:29:05.201Z,1.40
2022-11-22T02:31:39.852Z,1.50
2022-11-22T02:34:06.915Z,1.30
2022-11-22T02:36:36.234Z,1.10
2022-11-22T02:39:03.114Z,1.07
2022-11-22T02:41:29.867Z,0.97
2022-11-22T02:43:57.175Z,1.00
2022-11-22T02:46:23.844Z,1.43
2022-11-22T02:48:51.060Z,1.20
2022-11-22T02:51:19.857Z,1.00
2022-11-22T02:53:48.311Z,1.10
2022-11-22T02:56:15.539Z,1.07
2022-11-22T02:58:43.519Z,1.00
2022-11-22T03:01:11.530Z,1.10
2022-11-22T03:03:38.376Z,1.20
2022-11-22T03:06:05.123Z,1.10
2022-11-22T03:08:31.853Z,1.03
2022-11-22T03:10:59.040Z,1.00
2022-11-22T03:13:26.261Z,0.97
2022-11-22T03:15:53.013Z,1.10
2022-11-22T03:18:19.755Z,1.00
2022-11-22T03:20:46.441Z,1.00
2022-11-22T03:23:13.158Z,1.10
2022-11-22T03:25:40.413Z,0.90
2022-11-22T03:28:07.668Z,0.90
2022-11-22T03:30:34.387Z,0.97
2022-11-22T03:33:01.114Z,1.10
2022-11-22T03:35:27.740Z,0.90
2022-11-22T03:37:54.412Z,0.90
2022-11-22T03:40:21.231Z,1.00
2022-11-22T03:42:48.079Z,0.87
2022-11-22T03:45:14.822Z,0.90
2022-11-22T03:47:41.490Z,0.90
2022-11-22T03:50:08.490Z,1.07
2022-11-22T03:52:35.518Z,0.97
2022-11-22T03:55:02.667Z,0.80
2022-11-22T03:57:29.305Z,0.90
2022-11-22T03:59:56.010Z,1.07
2022-11-22T04:02:22.653Z,1.20
2022-11-22T04:04:49.347Z,1.33
2022-11-22T04:07:16.174Z,1.67
2022-11-22T04:09:42.876Z,1.57
2022-11-22T04:12:09.589Z,1.70
2022-11-22T04:14:54.614Z,1.80
2022-11-22T04:17:40.292Z,1.30
2022-11-22T04:20:37.533Z,1.83
2022-11-22T04:23:12.547Z,1.77
2022-11-22T04:25:41.548Z,1.63
2022-11-22T04:28:09.389Z,1.20
2022-11-22T04:30:54.642Z,1.23
2022-11-22T04:33:22.158Z,1.50
2022-11-22T04:35:49.504Z,1.50
2022-11-22T04:38:16.927Z,1.40
2022-11-22T04:40:46.932Z,1.20
2022-11-22T04:43:44.322Z,1.50
2022-11-22T04:46:11.961Z,1.20
2022-11-22T04:48:38.835Z,1.10
2022-11-22T04:51:25.507Z,1.00
2022-11-22T04:53:52.504Z,0.90
2022-11-22T04:56:19.390Z,1.00
2022-11-22T04:58:46.531Z,1.10
2022-11-22T05:01:13.439Z,1.00
2022-11-22T05:03:40.162Z,0.80
2022-11-22T05:06:06.918Z,1.00
2022-11-22T05:08:33.931Z,1.03
2022-11-22T05:11:00.690Z,1.00
2022-11-22T05:13:33.623Z,1.00
2022-11-22T05:16:01.626Z,1.00
2022-11-22T05:18:29.767Z,0.80
2022-11-22T05:20:57.101Z,0.90
2022-11-22T05:23:42.859Z,1.00
2022-11-22T05:26:10.790Z,1.00
2022-11-22T05:28:38.949Z,0.87
2022-11-22T05:31:11.236Z,0.93
2022-11-22T05:33:39.483Z,1.00
2022-11-22T05:36:06.679Z,1.20
2022-11-22T05:38:35.493Z,1.00
2022-11-22T05:41:03.306Z,1.07
2022-11-22T05:43:30.102Z,1.13
2022-11-22T05:45:57.039Z,0.90
2022-11-22T05:48:23.755Z,1.00
2022-11-22T05:50:50.456Z,1.10
2022-11-22T05:53:17.136Z,0.80
2022-11-22T05:55:43.805Z,0.97
2022-11-22T05:58:10.625Z,1.10
2022-11-22T06:00:37.319Z,0.83
2022-11-22T06:03:04.589Z,1.10
2022-11-22T06:05:31.564Z,0.90
2022-11-22T06:08:00.123Z,1.10
2022-11-22T06:10:27.323Z,1.10
2022-11-22T06:12:54.292Z,0.87
2022-11-22T06:15:21.846Z,1.20
2022-11-22T06:17:48.512Z,1.00
2022-11-22T06:20:15.699Z,1.10
2022-11-22T06:22:42.317Z,1.00
2022-11-22T06:25:09.654Z,1.10
2022-11-22T06:27:36.374Z,1.07
2022-11-22T06:30:03.190Z,1.10
2022-11-22T06:32:33.143Z,1.00
2022-11-22T06:35:00.637Z,0.97
2022-11-22T06:37:27.601Z,1.13
2022-11-22T06:39:54.285Z,1.10
2022-11-22T06:42:20.955Z,1.20
2022-11-22T06:44:47.588Z,1.10
2022-11-22T06:47:14.509Z,1.10
2022-11-22T06:49:41.185Z,1.10
2022-11-22T06:52:07.924Z,1.17
2022-11-22T06:54:34.693Z,1.20
2022-11-22T06:57:01.470Z,1.13
2022-11-22T06:59:28.515Z,1.03
2022-11-22T07:01:55.498Z,1.20
2022-11-22T07:04:22.289Z,0.90
2022-11-22T07:06:49.003Z,1.07
2022-11-22T07:09:16.748Z,1.00
2022-11-22T07:11:43.667Z,1.20
2022-11-22T07:14:10.371Z,1.10
2022-11-22T07:16:38.234Z,1.23
2022-11-22T07:19:05.921Z,0.97
2022-11-22T07:21:32.724Z,1.20
2022-11-22T07:23:59.458Z,0.83
2022-11-22T07:26:26.743Z,1.43
2022-11-22T07:28:53.426Z,1.23
2022-11-22T07:31:20.500Z,0.90
2022-11-22T07:33:47.331Z,1.10
2022-11-22T07:36:21.798Z,1.20
2022-11-22T07:38:49.044Z,1.00
2022-11-22T07:41:16.627Z,0.90
2022-11-22T07:43:43.500Z,1.20
2022-11-22T07:46:31.425Z,1.00
2022-11-22T07:48:59.309Z,1.10
2022-11-22T07:51:26.266Z,1.00
2022-11-22T07:53:53.050Z,0.97
2022-11-22T07:56:19.810Z,0.90
2022-11-22T07:58:46.563Z,1.07
2022-11-22T08:01:16.635Z,1.10
2022-11-22T08:03:44.166Z,1.10
2022-11-22T08:06:12.054Z,1.00
2022-11-22T08:08:41.885Z,1.40
2022-11-22T08:11:09.115Z,1.00
2022-11-22T08:13:36.207Z,1.10
2022-11-22T08:16:09.117Z,1.10
2022-11-22T08:18:39.273Z,1.27
2022-11-22T08:21:08.255Z,1.23
2022-11-22T08:23:35.688Z,1.10
2022-11-22T08:26:02.567Z,1.10
2022-11-22T08:28:29.981Z,1.10
2022-11-22T08:31:08.648Z,1.30
2022-11-22T08:33:35.563Z,1.20
2022-11-22T08:36:02.501Z,1.10
2022-11-22T08:38:29.330Z,1.30
2022-11-22T08:40:56.209Z,1.10
2022-11-22T08:43:23.129Z,1.27
2022-11-22T08:45:54.595Z,1.00
2022-11-22T08:48:22.415Z,1.20
2022-11-22T08:50:58.961Z,1.30
2022-11-22T08:53:26.667Z,1.13
2022-11-22T08:55:54.703Z,1.40
2022-11-22T08:58:22.441Z,1.23
2022-11-22T09:00:53.922Z,1.10
2022-11-22T09:03:20.656Z,1.30
2022-11-22T09:08:36.666Z,1.20
2022-11-22T09:11:11.946Z,1.10
2022-11-22T09:13:39.275Z,1.30
2022-11-22T09:16:17.674Z,1.40
2022-11-22T09:18:51.399Z,1.10
2022-11-22T09:21:34.415Z,1.10
2022-11-22T09:24:11.360Z,1.00
2022-11-22T09:26:40.440Z,1.07
2022-11-22T09:29:10.686Z,1.23
2022-11-22T09:31:37.532Z,1.10
2022-11-22T09:34:04.425Z,1.13
2022-11-22T09:36:35.931Z,0.93
2022-11-22T09:39:02.768Z,1.10
2022-11-22T09:41:51.130Z,1.20
2022-11-22T09:44:32.058Z,1.30
2022-11-22T09:47:04.874Z,1.27
2022-11-22T09:50:09.095Z,1.30
2022-11-22T09:52:42.044Z,1.17
2022-11-22T09:55:23.880Z,1.10
2022-11-22T09:58:09.131Z,1.57
2022-11-22T10:04:22.495Z,1.40
2022-11-22T10:07:06.393Z,1.37
2022-11-22T10:10:08.087Z,1.40
2022-11-22T10:12:37.991Z,1.37
2022-11-22T10:15:19.567Z,1.40
2022-11-22T10:17:58.356Z,1.30
2022-11-22T10:20:30.794Z,1.30
2022-11-22T10:22:58.922Z,1.17
2022-11-22T10:25:42.320Z,1.23
2022-11-22T10:29:09.725Z,1.20
2022-11-22T10:32:10.213Z,1.20
2022-11-22T10:34:56.187Z,1.30
2022-11-22T10:37:51.141Z,1.30
2022-11-22T10:40:22.956Z,1.30
2022-11-22T10:42:52.459Z,1.40
2022-11-22T10:45:24.644Z,1.00
2022-11-22T10:48:28.900Z,1.20
2022-11-22T10:51:17.775Z,0.90
2022-11-22T10:54:04.613Z,1.00
2022-11-22T10:56:40.530Z,1.07
2022-11-22T10:59:39.711Z,1.00
2022-11-22T11:02:34.441Z,1.40
2022-11-22T11:05:04.366Z,1.30
2022-11-22T11:07:31.990Z,1.30
2022-11-22T11:10:14.703Z,1.20
2022-11-22T11:12:47.927Z,1.00
2022-11-22T11:15:17.293Z,1.20
2022-11-22T11:17:45.442Z,1.00
2022-11-22T11:20:27.514Z,1.00
2022-11-22T11:25:43.400Z,1.10
2022-11-22T11:28:18.273Z,0.97
2022-11-22T11:30:47.768Z,1.10
2022-11-22T11:33:21.007Z,1.10
2022-11-22T11:35:48.252Z,1.00
2022-11-22T11:38:32.307Z,1.10
2022-11-22T11:41:16.115Z,1.00
2022-11-22T11:43:45.207Z,1.20
2022-11-22T11:46:20.649Z,1.07
2022-11-22T11:49:07.309Z,0.90
2022-11-22T11:51:44.877Z,1.10
2022-11-22T11:54:16.029Z,1.10
2022-11-22T11:56:51.815Z,1.07
2022-11-22T11:59:23.501Z,0.97
2022-11-22T12:02:01.813Z,1.20
2022-11-22T12:04:31.903Z,0.90
2022-11-22T12:07:03.571Z,1.03
2022-11-22T12:09:43.477Z,1.10
2022-11-22T12:12:17.541Z,0.87
2022-11-22T12:15:10.139Z,1.10
2022-11-22T12:17:44.645Z,0.80
2022-11-22T12:20:17.314Z,0.90
2022-11-22T12:23:14.838Z,0.90
2022-11-22T12:25:42.697Z,1.10
2022-11-22T12:28:23.742Z,1.00
2022-11-22T12:31:10.613Z,0.83
2022-11-22T12:33:44.886Z,0.90
2022-11-22T12:36:57.376Z,0.80
2022-11-22T12:39:27.599Z,0.97
2022-11-22T12:45:56.136Z,1.00
2022-11-22T12:48:30.495Z,1.10
2022-11-22T12:51:05.230Z,0.90
2022-11-22T12:53:53.291Z,0.83
2022-11-22T12:56:33.001Z,1.00
2022-11-22T12:59:08.161Z,1.07
2022-11-22T13:01:40.220Z,1.00
2022-11-22T13:04:10.129Z,0.80
2022-11-22T13:06:53.932Z,0.80
2022-11-22T13:09:43.034Z,0.90
2022-11-22T13:12:12.757Z,1.00
2022-11-22T13:14:43.347Z,1.00
2022-11-22T13:17:12.281Z,0.93
2022-11-22T13:19:55.298Z,0.80
2022-11-22T13:22:41.801Z,0.90
2022-11-22T13:25:18.465Z,0.70
2022-11-22T13:27:48.625Z,1.30
2022-11-22T13:30:21.122Z,0.80
2022-11-22T13:32:51.835Z,0.80
2022-11-22T13:35:37.865Z,0.83
2022-11-22T13:38:14.929Z,0.97
2022-11-22T13:40:47.245Z,1.10
2022-11-22T13:43:21.993Z,0.80
2022-11-22T13:45:50.593Z,0.80
2022-11-22T13:48:39.589Z,0.80
2022-11-22T13:51:12.039Z,0.93
2022-11-22T13:53:42.697Z,1.20
2022-11-22T13:56:15.706Z,1.00
2022-11-22T13:58:51.106Z,0.80
2022-11-22T14:01:39.651Z,0.73
2022-11-22T14:04:25.621Z,0.70
2022-11-22T14:06:53.922Z,0.70
2022-11-22T14:09:42.499Z,0.63
2022-11-22T14:12:35.952Z,0.87
2022-11-22T14:15:22.661Z,0.67
2022-11-22T14:18:11.649Z,0.80
2022-11-22T14:21:09.888Z,0.67
2022-11-22T14:23:59.912Z,0.67
2022-11-22T14:26:38.992Z,0.90
2022-11-22T14:29:56.458Z,0.83
2022-11-22T14:32:24.879Z,0.80
2022-11-22T14:35:31.323Z,0.53
2022-11-22T14:38:05.552Z,1.00
2022-11-22T14:40:41.676Z,0.70
2022-11-22T14:43:38.185Z,0.60
2022-11-22T14:46:37.312Z,0.80
2022-11-22T14:49:13.375Z,0.60
2022-11-22T14:51:40.160Z,0.60
2022-11-22T14:54:30.434Z,0.70
2022-11-22T14:57:04.470Z,0.60
2022-11-22T14:59:49.892Z,0.60
2022-11-22T15:02:47.743Z,0.60
2022-11-22T15:09:11.239Z,0.80
2022-11-22T15:09:20.799Z,0.73
2022-11-22T15:11:38.538Z,0.70
2022-11-22T15:14:20.791Z,0.70
2022-11-22T15:57:33.271Z,0.63
2022-11-22T16:00:00.285Z,0.50
2022-11-22T16:02:30.523Z,0.70
2022-11-22T16:06:05.587Z,0.70
2022-11-22T16:07:50.111Z,0.60
2022-11-22T16:10:18.110Z,0.63
2022-11-22T16:12:44.894Z,0.63
2022-11-22T16:15:38.401Z,0.60
2022-11-22T16:18:25.202Z,0.80
2022-11-22T16:21:11.133Z,0.60
2022-11-22T16:23:42.001Z,0.60
2022-11-22T16:26:17.881Z,0.70
2022-11-22T16:28:44.919Z,0.60
2022-11-22T16:31:32.199Z,0.70
2022-11-22T16:33:59.015Z,0.57
2022-11-22T16:36:29.638Z,0.70
2022-11-22T16:38:56.330Z,0.70
2022-11-22T16:41:28.334Z,0.60
2022-11-22T16:44:16.779Z,0.70
2022-11-22T16:46:43.872Z,0.63
2022-11-22T16:49:21.716Z,0.60
2022-11-22T16:51:49.176Z,0.70
2022-11-22T16:54:18.734Z,0.60
2022-11-22T16:56:46.031Z,0.80
2022-11-22T16:59:13.174Z,0.70
2022-11-22T17:01:44.045Z,0.70
2022-11-22T17:04:22.079Z,0.63
2022-11-22T17:06:48.947Z,0.80
2022-11-22T17:09:15.847Z,0.80
2022-11-22T17:11:44.370Z,0.80
2022-11-22T17:14:18.290Z,0.70
2022-11-22T17:16:48.259Z,0.70
2022-11-22T17:19:45.386Z,0.93
2022-11-22T17:22:06.820Z,1.17
2022-11-22T17:24:34.056Z,1.00
2022-11-22T17:27:00.871Z,0.70
2022-11-22T17:32:14.396Z,0.90
2022-11-22T17:34:41.165Z,0.90
2022-11-22T17:37:13.783Z,1.00
2022-11-22T17:39:41.112Z,0.80
2022-11-22T17:42:07.971Z,1.00
2022-11-22T17:44:34.834Z,1.00
2022-11-22T17:47:01.660Z,0.90
2022-11-22T17:49:29.074Z,1.10
2022-11-22T17:51:56.492Z,1.20
2022-11-22T17:54:23.346Z,2.10
2022-11-22T17:56:50.146Z,1.30
2022-11-22T17:59:17.707Z,1.30
2022-11-22T18:01:44.603Z,1.33
2022-11-22T18:04:11.634Z,1.10
2022-11-22T18:06:38.410Z,1.30
2022-11-22T18:09:05.210Z,1.30
2022-11-22T18:11:32.226Z,1.20
2022-11-22T18:13:59.013Z,1.40
2022-11-22T18:16:28.583Z,1.10
2022-11-22T18:18:57.503Z,1.07
2022-11-22T18:21:25.866Z,1.10
2022-11-22T18:23:52.588Z,1.00
2022-11-22T18:31:53.582Z,2.00
2022-11-22T18:34:24.396Z,2.23
2022-11-22T18:37:06.733Z,1.70
2022-11-22T18:39:36.447Z,1.90
2022-11-22T18:42:05.701Z,1.40
2022-11-22T18:44:32.454Z,1.40
2022-11-22T18:46:59.228Z,1.57
2022-11-22T18:49:26.170Z,1.67
2022-11-22T18:51:52.907Z,1.37
2022-11-22T18:54:21.720Z,1.50
2022-11-22T18:56:49.012Z,1.50
2022-11-22T18:59:15.784Z,1.43
2022-11-22T19:01:42.840Z,1.30
2022-11-22T19:04:14.287Z,1.70
2022-11-22T19:06:42.035Z,1.30
2022-11-22T19:09:09.566Z,1.40
2022-11-22T19:11:36.471Z,1.30
2022-11-22T19:14:03.691Z,1.20
2022-11-22T19:16:30.615Z,1.20
2022-11-22T19:18:59.232Z,1.30
2022-11-22T19:21:27.893Z,1.00
2022-11-22T19:23:55.638Z,1.40
2022-11-22T19:26:24.258Z,1.20
2022-11-22T19:28:55.470Z,1.20
2022-11-22T19:31:24.363Z,1.30
2022-11-22T19:33:51.288Z,1.20
2022-11-22T19:36:20.819Z,1.20
2022-11-22T19:38:48.777Z,1.20
2022-11-22T19:41:21.144Z,1.20
2022-11-22T19:43:48.955Z,1.10
2022-11-22T19:46:16.240Z,1.20
2022-11-22T19:48:46.884Z,1.20
2022-11-22T19:51:15.216Z,1.30
2022-11-22T19:53:42.471Z,1.40
2022-11-22T19:56:13.768Z,1.70
2022-11-22T19:58:40.591Z,1.30
2022-11-22T20:01:09.726Z,1.20
2022-11-22T20:03:38.292Z,1.20
2022-11-22T20:06:06.416Z,1.20
2022-11-22T20:08:33.251Z,1.40
2022-11-22T20:11:01.983Z,1.30
2022-11-22T20:13:29.515Z,1.33
2022-11-22T20:15:57.291Z,1.40
2022-11-22T20:18:24.319Z,1.53
2022-11-22T20:20:51.049Z,1.70
2022-11-22T20:23:17.734Z,1.40
2022-11-22T20:25:44.415Z,1.40
2022-11-22T20:28:11.199Z,1.50
2022-11-22T20:30:37.907Z,1.40
2022-11-22T20:33:04.679Z,1.40
2022-11-22T20:35:31.360Z,1.30
2022-11-22T20:37:58.192Z,1.60
2022-11-22T20:40:24.889Z,1.43
2022-11-22T20:42:52.045Z,1.40
2022-11-22T20:45:18.779Z,2.07
2022-11-22T20:47:45.501Z,2.20
2022-11-22T20:50:12.215Z,1.93
2022-11-22T20:52:38.941Z,2.10
2022-11-22T20:55:06.381Z,2.07
2022-11-22T20:57:33.134Z,2.07
2022-11-22T20:59:59.804Z,2.03
2022-11-22T21:02:26.496Z,1.70
2022-11-22T21:04:53.220Z,1.73
2022-11-22T21:07:20.049Z,1.60
2022-11-22T21:09:46.815Z,1.53
2022-11-22T21:12:13.563Z,1.60
2022-11-22T21:14:40.350Z,1.57
2022-11-22T21:17:30.517Z,1.50
2022-11-22T21:19:53.701Z,1.90
2022-11-22T21:22:20.374Z,1.47
2022-11-22T21:24:47.309Z,1.50
2022-11-22T21:27:14.034Z,1.20
2022-11-22T21:29:41.292Z,1.50
2022-11-22T21:32:08.083Z,1.30
2022-11-22T21:34:34.869Z,1.53
2022-11-22T21:37:01.544Z,1.63
2022-11-22T21:39:28.271Z,1.50
2022-11-22T21:41:54.982Z,1.60
2022-11-22T21:44:21.691Z,1.47
2022-11-22T21:46:48.353Z,1.50
2022-11-22T21:49:15.503Z,1.30
2022-11-22T21:51:42.352Z,1.60
2022-11-22T21:54:09.263Z,1.20
2022-11-22T21:56:36.017Z,1.40
2022-11-22T21:59:02.856Z,1.30
2022-11-22T22:01:29.797Z,1.40
2022-11-22T22:03:56.724Z,1.23
2022-11-22T22:06:23.605Z,1.50
2022-11-22T22:08:50.333Z,1.13
2022-11-22T22:11:17.303Z,1.30
2022-11-22T22:13:44.428Z,1.30
2022-11-22T22:16:19.353Z,1.10
2022-11-22T22:18:46.372Z,1.30
2022-11-22T22:21:13.656Z,1.43
2022-11-22T22:23:41.649Z,1.63
2022-11-22T22:26:11.131Z,1.10
2022-11-22T22:28:38.789Z,1.00
2022-11-22T22:31:21.721Z,1.20
2022-11-22T22:33:50.610Z,1.43
2022-11-22T22:36:17.361Z,1.20
2022-11-22T22:38:44.302Z,1.47
2022-11-22T22:41:13.001Z,1.30
2022-11-22T22:43:43.747Z,1.30
2022-11-22T22:46:14.802Z,1.43
2022-11-22T22:48:41.927Z,1.30
2022-11-22T22:51:14.319Z,1.40
2022-11-22T22:53:41.958Z,1.33
2022-11-22T22:56:09.844Z,1.20
2022-11-22T22:58:36.998Z,1.10
2022-11-22T23:01:15.455Z,1.17
2022-11-22T23:03:42.156Z,1.00
2022-11-22T23:06:11.107Z,1.40
2022-11-22T23:08:39.264Z,1.20
2022-11-22T23:11:09.807Z,1.00
2022-11-22T23:13:38.063Z,0.93
2022-11-22T23:16:06.078Z,1.20
2022-11-22T23:18:36.437Z,1.10
2022-11-22T23:21:04.504Z,1.10
2022-11-22T23:23:31.643Z,1.10
2022-11-22T23:26:02.906Z,1.20
2022-11-22T23:28:30.348Z,1.33
2022-11-22T23:31:03.078Z,1.10
2022-11-22T23:33:29.801Z,1.13
2022-11-22T23:36:01.861Z,1.13
2022-11-22T23:38:29.028Z,1.50
2022-11-22T23:40:55.676Z,1.70
2022-11-22T23:43:22.416Z,1.60
2022-11-22T23:45:49.120Z,1.40
2022-11-22T23:48:16.294Z,1.20
2022-11-22T23:50:43.071Z,1.60
2022-11-22T23:53:09.799Z,1.73
2022-11-22T23:55:36.549Z,1.77
2022-11-22T23:58:03.329Z,1.80
